Terminal Aerodrome Forecast
Issued by NWS

Home | Current Version | Previous Version | Text Only | Print | Product List | Glossary On
Versions: 1 2 3 4 5 6 7 8 9 10 11 12 13 14 15 16 17 18
000
FTUS46 KEKA 201746
TAFUKI
TAF
KUKI 201746Z 2018/2118 18003KT 6SM -RA BR BKN025 OVC035
     FM202300 16004KT 4SM -RA BR BKN015 OVC025
     FM210900 27003KT 6SM BR OVC015
     FM211300 30003KT 5SM -DZ BR SCT007 OVC015=

USA.gov is the U.S. government's official web portal to all federal, state and local government web resources and services.